»·PEaware :: DCM205 KSAN-KPHX

DCM205 :: KSAN-KPHX

FLIGHT INFORMATION

Flight Status: Arrived
Operator:
DotCom
More flights by this operator :: More flights under this callsign
Pilot: Chris S. (2433)
Aircraft: AIRBUS A320
(A320)
More flights by this aircraft type
Origin: KSAN San Diego Intl-Lindbergh
United States
Destination: KPHX Phoenix Sky Harbor Intl
United States
More flights between these airports :: More routes between these airports
Route: +ZZOOO2 IPL J18 BZA HOGGZ HYDRR1
File this flight plan on PilotEdge
Remarks:
Altitude:
(Current/Filed)
27,000ft
Speed:
(Current/Filed)
450kts
Departed: 01-Apr-20 09:43 AM
Arrived: 01-Apr-20 10:33 AM
Distance/Time
Traveled:
265nm/0:49
Distance/Time
To Go:
Arrived

Flight Plot

Page will automatically refresh every two minutes.

Flight plan parsing failed; only flown route is shown


Map Options




Map Legend


Flown Route
Filed Route
Departure Airport
Arrival Airport
Navaid (VOR, NDB)
Fix

Horizontal Profiles

Position Reports

Time Latitude Longitude Heading Altitude Ground
Speed
01-Apr-20 09:25 32.733389 -117.207415 12 29ft 0kts
01-Apr-20 09:26 32.733389 -117.207415 12 29ft 0kts
01-Apr-20 09:27 32.733389 -117.207415 12 29ft 0kts
01-Apr-20 09:28 32.733389 -117.207415 12 29ft 0kts
01-Apr-20 09:29 32.733389 -117.207415 12 29ft 0kts
01-Apr-20 09:30 32.733389 -117.207415 12 29ft 0kts
01-Apr-20 09:31 32.733389 -117.207415 12 29ft 0kts
01-Apr-20 09:32 32.733389 -117.207415 12 29ft 0kts
01-Apr-20 09:33 32.733389 -117.207415 12 29ft 0kts
01-Apr-20 09:34 32.733389 -117.207415 12 29ft 0kts
01-Apr-20 09:35 32.733420 -117.207407 13 29ft 1kts
01-Apr-20 09:36 32.734633 -117.206271 49 29ft 9kts
01-Apr-20 09:37 32.735572 -117.202271 104 29ft 15kts
01-Apr-20 09:38 32.734241 -117.196732 105 29ft 19kts
01-Apr-20 09:40 32.732618 -117.190129 106 29ft 22kts
01-Apr-20 09:41 32.730817 -117.182652 106 29ft 24kts
01-Apr-20 09:42 32.729630 -117.176359 71 29ft 9kts
01-Apr-20 09:43 32.733087 -117.187795 284 29ft 144kts
01-Apr-20 09:44 32.746019 -117.240845 284 2126ft 177kts
01-Apr-20 09:45 32.755654 -117.307303 250 3825ft 240kts
01-Apr-20 09:46 32.696781 -117.320455 139 6936ft 266kts
01-Apr-20 09:47 32.641294 -117.256124 133 9481ft 300kts
01-Apr-20 09:48 32.622790 -117.155184 92 11462ft 349kts
01-Apr-20 09:49 32.612309 -117.032437 96 13459ft 388kts
01-Apr-20 09:50 32.604056 -116.902831 81 15876ft 399kts
01-Apr-20 09:51 32.630219 -116.772957 78 18000ft 412kts
01-Apr-20 09:52 32.643431 -116.635782 83 19816ft 426kts
01-Apr-20 09:53 32.657584 -116.493654 83 21451ft 441kts
01-Apr-20 09:54 32.671505 -116.346510 83 22890ft 455kts
01-Apr-20 09:55 32.685649 -116.197380 84 23204ft 456kts
01-Apr-20 09:56 32.699831 -116.045569 84 24537ft 467kts
01-Apr-20 09:57 32.714190 -115.891150 84 26177ft 466kts
01-Apr-20 09:57 32.725840 -115.764105 84 26877ft 459kts
01-Apr-20 09:59 32.741636 -115.588321 84 26874ft 459kts
01-Apr-20 10:00 32.751042 -115.437712 89 26856ft 458kts
01-Apr-20 10:00 32.753376 -115.311391 89 26826ft 459kts
01-Apr-20 10:02 32.757593 -115.134265 89 26838ft 459kts
01-Apr-20 10:02 32.760334 -115.007898 90 26831ft 460kts
01-Apr-20 10:03 32.763421 -114.855637 90 26847ft 461kts
01-Apr-20 10:05 32.766771 -114.677348 90 26842ft 463kts
01-Apr-20 10:05 32.768993 -114.549570 90 26842ft 464kts
01-Apr-20 10:06 32.770952 -114.396232 91 26849ft 466kts
01-Apr-20 10:07 32.772944 -114.242741 91 26538ft 455kts
01-Apr-20 10:08 32.774543 -114.096159 91 25244ft 437kts
01-Apr-20 10:09 32.787861 -113.950710 83 24901ft 451kts
01-Apr-20 10:10 32.804164 -113.802291 84 24897ft 453kts
01-Apr-20 10:11 32.835735 -113.659567 49 24816ft 448kts
01-Apr-20 10:12 32.918044 -113.553140 45 22798ft 432kts
01-Apr-20 10:13 32.995014 -113.447625 46 20830ft 413kts
01-Apr-20 10:14 33.069650 -113.347197 46 19260ft 392kts
01-Apr-20 10:15 33.139036 -113.253329 46 17962ft 367kts
01-Apr-20 10:16 33.205804 -113.162883 47 16526ft 360kts
01-Apr-20 10:17 33.269502 -113.072621 61 15070ft 352kts
01-Apr-20 10:18 33.277277 -112.957826 91 13627ft 340kts
01-Apr-20 10:19 33.279851 -112.848598 89 12428ft 322kts
01-Apr-20 10:20 33.306271 -112.751446 63 11402ft 291kts
01-Apr-20 10:21 33.339165 -112.664853 66 9931ft 277kts
01-Apr-20 10:22 33.370621 -112.583111 67 9069ft 262kts
01-Apr-20 10:23 33.400184 -112.505478 67 8094ft 252kts
01-Apr-20 10:24 33.427043 -112.429624 72 7039ft 236kts
01-Apr-20 10:25 33.428683 -112.350663 91 5978ft 236kts
01-Apr-20 10:26 33.429911 -112.275802 84 4919ft 217kts
01-Apr-20 10:27 33.441109 -112.205455 91 3965ft 214kts
01-Apr-20 10:28 33.440842 -112.140116 93 3014ft 168kts
01-Apr-20 10:29 33.440825 -112.090472 91 2203ft 141kts
01-Apr-20 10:30 33.440863 -112.044104 89 1452ft 139kts
01-Apr-20 10:31 33.440855 -112.006828 89 1149ft 64kts
01-Apr-20 10:32 33.439924 -112.000836 137 1149ft 1kts
01-Apr-20 10:33 33.439008 -111.998325 89 1149ft 15kts
01-Apr-20 10:34 33.438140 -111.995120 119 1149ft 7kts
01-Apr-20 10:35 33.438092 -111.995021 120 1149ft 0kts
01-Apr-20 10:36 33.438092 -111.995021 120 1149ft 0kts
01-Apr-20 10:37 33.438092 -111.995021 120 1149ft 0kts
01-Apr-20 10:38 33.438092 -111.995021 120 1149ft 0kts
01-Apr-20 10:39 33.438092 -111.995021 120 1149ft 0kts
01-Apr-20 10:40 33.438092 -111.995021 120 1149ft 0kts
01-Apr-20 10:41 33.438092 -111.995021 120 1149ft 0kts

Navigation Log

Ident Type
Flight plan parsing failed, navigation log unavailable